Time;durP1;ratioP1;P1;durP2;ratioP2;P2;SDS_P1;SDS_P2;PMS_P1;PMS_P2;Temp;Humidity;BMP_temperature;BMP_pressure;BME280_temperature;BME280_humidity;BME280_pressure;Samples;Min_cycle;Max_cycle;Signal;HPM_P1;HPM_P2
2023/01/02 00:00:23;;;;;;;1.20;1.10;;;13.70;99.90;;;;;;5010299;28;20519;-71
2023/01/02 00:02:49;;;;;;;1.53;1.23;;;13.70;99.90;;;;;;5010522;28;20496;-71
2023/01/02 00:05:16;;;;;;;3.50;1.90;;;13.70;99.90;;;;;;5009976;28;20489;-71
2023/01/02 00:07:44;;;;;;;2.87;1.50;;;13.80;99.90;;;;;;5011396;28;20489;-71
2023/01/02 00:10:11;;;;;;;1.57;1.27;;;13.70;99.90;;;;;;5010198;28;20461;-71
2023/01/02 00:12:38;;;;;;;4.03;1.40;;;13.70;99.90;;;;;;5011855;28;20465;-71
2023/01/02 00:15:06;;;;;;;3.23;1.80;;;13.70;99.90;;;;;;5011353;28;20847;-70
2023/01/02 00:17:33;;;;;;;1.40;1.20;;;13.70;99.90;;;;;;5011300;28;20461;-71
2023/01/02 00:19:59;;;;;;;1.63;1.43;;;13.70;99.90;;;;;;5010626;28;20461;-70
2023/01/02 00:22:26;;;;;;;1.50;1.40;;;13.70;99.90;;;;;;5011402;28;20461;-71
2023/01/02 00:24:54;;;;;;;1.43;1.13;;;13.70;99.90;;;;;;5011212;28;20492;-71
2023/01/02 00:27:21;;;;;;;1.53;1.30;;;13.70;99.90;;;;;;5010962;28;20485;-71
2023/01/02 00:29:47;;;;;;;2.00;1.60;;;13.80;99.90;;;;;;5010551;28;20684;-70
2023/01/02 00:32:15;;;;;;;2.47;1.37;;;13.80;99.90;;;;;;5010938;28;20465;-71
2023/01/02 00:34:41;;;;;;;1.67;1.30;;;13.80;99.90;;;;;;5011068;28;20481;-71
2023/01/02 00:37:08;;;;;;;1.40;1.30;;;13.80;99.90;;;;;;5010908;28;20460;-71
2023/01/02 00:39:35;;;;;;;1.40;1.20;;;13.80;99.90;;;;;;5010729;28;20832;-71
2023/01/02 00:42:03;;;;;;;2.73;2.50;;;13.80;99.90;;;;;;5010886;28;20465;-70
2023/01/02 00:44:30;;;;;;;1.60;1.43;;;13.70;99.90;;;;;;5010944;28;20465;-71
2023/01/02 00:46:57;;;;;;;1.80;1.43;;;13.70;99.90;;;;;;5010932;28;20465;-70
2023/01/02 00:49:23;;;;;;;2.67;1.17;;;13.70;99.90;;;;;;5009960;28;20472;-70
2023/01/02 00:51:50;;;;;;;1.37;1.10;;;13.70;99.90;;;;;;5010977;28;20457;-71
2023/01/02 00:54:17;;;;;;;2.27;1.23;;;13.70;99.90;;;;;;5010589;28;20461;-71
2023/01/02 00:56:43;;;;;;;1.60;1.50;;;13.60;99.90;;;;;;5010690;28;20964;-70
2023/01/02 00:59:11;;;;;;;3.07;2.00;;;13.60;99.90;;;;;;5008467;28;20555;-70
2023/01/02 01:01:38;;;;;;;3.13;1.17;;;13.60;99.90;;;;;;5008930;28;20465;-70
2023/01/02 01:04:05;;;;;;;1.90;1.20;;;13.60;99.90;;;;;;5010349;28;20461;-70
2023/01/02 01:06:34;;;;;;;1.90;1.70;;;13.60;99.90;;;;;;5010719;28;20476;-70
2023/01/02 01:09:00;;;;;;;1.50;1.20;;;13.60;99.90;;;;;;5010055;28;20489;-70
2023/01/02 01:11:27;;;;;;;2.08;1.10;;;13.60;99.90;;;;;;5010432;28;20527;-70
2023/01/02 01:13:54;;;;;;;1.70;1.47;;;13.60;99.90;;;;;;5010751;28;20672;-70
2023/01/02 01:16:22;;;;;;;2.50;1.10;;;13.60;99.90;;;;;;5010295;28;21078;-70
2023/01/02 01:18:49;;;;;;;3.00;1.30;;;13.60;99.90;;;;;;5010046;28;20468;-70
2023/01/02 01:21:18;;;;;;;1.70;1.30;;;13.60;99.90;;;;;;5010640;28;20468;-70
2023/01/02 01:23:49;;;;;;;1.77;1.00;;;13.50;99.90;;;;;;5014497;28;20474;-70
2023/01/02 01:26:16;;;;;;;2.53;1.70;;;13.50;99.90;;;;;;5014202;28;20860;-70
2023/01/02 01:28:42;;;;;;;2.17;1.50;;;13.50;99.90;;;;;;5013835;28;20481;-70
2023/01/02 01:31:11;;;;;;;1.87;1.10;;;13.50;99.90;;;;;;5013901;28;20964;-71
2023/01/02 01:33:41;;;;;;;1.83;1.57;;;13.50;99.90;;;;;;5014165;28;20465;-70
2023/01/02 01:36:09;;;;;;;1.67;1.57;;;13.50;99.90;;;;;;5014000;28;20484;-70
2023/01/02 01:38:37;;;;;;;4.40;2.30;;;13.50;99.90;;;;;;5013690;28;20492;-70
2023/01/02 01:41:04;;;;;;;2.80;1.63;;;13.50;99.90;;;;;;5013954;28;20461;-70
2023/01/02 01:43:36;;;;;;;2.07;1.40;;;13.50;99.90;;;;;;5013975;28;20465;-69
2023/01/02 01:46:04;;;;;;;2.17;1.53;;;13.40;99.90;;;;;;5013905;28;20484;-70
2023/01/02 01:48:32;;;;;;;1.93;1.30;;;13.40;99.90;;;;;;5013221;28;20497;-70
2023/01/02 01:51:00;;;;;;;2.40;1.90;;;13.40;99.90;;;;;;5014030;28;20461;-70
2023/01/02 01:53:27;;;;;;;2.10;1.50;;;13.40;99.90;;;;;;5013826;28;20497;-70
2023/01/02 01:55:58;;;;;;;2.73;1.60;;;13.40;99.90;;;;;;5013962;28;20473;-70
2023/01/02 01:58:28;;;;;;;2.20;1.20;;;13.40;99.90;;;;;;5013174;28;20472;-70
2023/01/02 02:00:56;;;;;;;2.53;1.40;;;13.40;99.90;;;;;;5013824;28;20202;-70
2023/01/02 02:03:28;;;;;;;2.10;1.57;;;13.40;99.90;;;;;;5013627;28;20472;-70
2023/01/02 02:05:56;;;;;;;1.80;1.53;;;13.50;99.90;;;;;;5013932;28;20477;-71
2023/01/02 02:08:31;;;;;;;1.50;1.33;;;13.50;99.90;;;;;;5013082;28;20488;-70
2023/01/02 02:10:59;;;;;;;1.83;1.20;;;13.50;99.90;;;;;;5014351;28;20460;-71
2023/01/02 02:13:26;;;;;;;2.70;1.50;;;13.40;99.90;;;;;;5013106;28;20468;-71
2023/01/02 02:16:03;;;;;;;1.70;1.60;;;13.40;99.90;;;;;;5013337;28;20485;-71
2023/01/02 02:18:42;;;;;;;2.77;1.40;;;13.40;99.90;;;;;;5012735;28;20963;-70
2023/01/02 02:21:25;;;;;;;1.23;1.10;;;13.40;99.90;;;;;;5013191;28;20993;-71
2023/01/02 02:24:19;;;;;;;2.20;1.63;;;13.40;99.90;;;;;;5013480;28;20461;-71
2023/01/02 02:27:06;;;;;;;4.07;1.65;;;13.40;99.90;;;;;;5013272;28;20473;-70
2023/01/02 02:30:08;;;;;;;1.30;1.17;;;13.40;99.90;;;;;;5012286;28;20611;-70
2023/01/02 02:33:03;;;;;;;1.37;1.27;;;13.30;99.90;;;;;;5012475;28;20456;-70
2023/01/02 02:35:42;;;;;;;2.40;1.40;;;13.40;99.90;;;;;;5006170;28;20508;-70
2023/01/02 02:38:15;;;;;;;2.10;1.57;;;13.30;99.90;;;;;;5012347;28;20461;-70
2023/01/02 02:40:52;;;;;;;1.23;1.03;;;13.30;99.90;;;;;;5012670;28;20461;-70
2023/01/02 02:43:28;;;;;;;2.00;1.60;;;13.40;99.90;;;;;;5012570;28;20465;-70
2023/01/02 02:46:04;;;;;;;1.30;1.17;;;13.40;99.90;;;;;;5013066;28;20476;-71
2023/01/02 02:48:39;;;;;;;3.43;1.97;;;13.40;99.90;;;;;;5012333;28;20500;-71
2023/01/02 02:51:09;;;;;;;2.40;1.53;;;13.40;99.90;;;;;;5012724;28;20488;-70
2023/01/02 02:53:42;;;;;;;1.63;1.53;;;13.40;99.90;;;;;;5012775;28;20457;-70
2023/01/02 02:56:11;;;;;;;1.80;1.60;;;13.40;99.90;;;;;;5012549;28;20481;-71
2023/01/02 02:58:38;;;;;;;1.67;1.40;;;13.30;99.90;;;;;;5012412;28;20828;-71
2023/01/02 03:01:11;;;;;;;2.40;1.37;;;13.30;99.90;;;;;;5012661;28;20468;-69
2023/01/02 03:03:38;;;;;;;3.10;2.40;;;13.20;99.90;;;;;;5012962;28;20465;-71
2023/01/02 03:06:21;;;;;;;3.15;1.40;;;13.20;99.90;;;;;;5012568;28;20477;-71
2023/01/02 03:09:02;;;;;;;2.08;1.20;;;13.20;99.90;;;;;;5012289;28;20225;-70
2023/01/02 03:11:48;;;;;;;1.88;1.40;;;13.10;99.90;;;;;;5012340;28;20209;-70
2023/01/02 03:14:21;;;;;;;2.23;1.37;;;13.10;99.90;;;;;;5012408;28;20206;-70
2023/01/02 03:16:55;;;;;;;2.20;1.70;;;13.10;99.90;;;;;;5012592;28;20462;-70
2023/01/02 03:19:29;;;;;;;2.23;1.13;;;13.10;99.90;;;;;;5011601;28;20461;-71
2023/01/02 03:22:00;;;;;;;2.53;1.30;;;13.10;99.90;;;;;;5012439;28;20468;-70
2023/01/02 03:24:28;;;;;;;1.55;1.40;;;13.10;99.90;;;;;;5012105;28;20465;-70
2023/01/02 03:26:59;;;;;;;1.73;1.20;;;13.10;99.90;;;;;;5012667;28;20226;-70
2023/01/02 03:29:33;;;;;;;2.22;1.52;;;13.10;99.90;;;;;;5011428;28;20557;-70
2023/01/02 03:32:03;;;;;;;1.75;1.20;;;13.10;99.90;;;;;;5012358;28;20232;-70
2023/01/02 03:34:33;;;;;;;1.23;1.13;;;13.10;99.90;;;;;;5011927;28;20696;-70
2023/01/02 03:37:07;;;;;;;2.45;1.45;;;13.10;99.90;;;;;;5012228;28;20253;-70
2023/01/02 03:39:39;;;;;;;1.20;1.10;;;13.10;99.90;;;;;;5011434;28;20580;-70
2023/01/02 03:42:09;;;;;;;2.17;1.45;;;13.10;99.90;;;;;;5012062;28;20583;-70
2023/01/02 03:44:43;;;;;;;1.63;1.20;;;13.10;99.90;;;;;;5011768;28;20199;-70
2023/01/02 03:47:22;;;;;;;2.40;1.60;;;13.00;99.90;;;;;;5011703;28;20203;-70
2023/01/02 03:49:53;;;;;;;1.77;1.52;;;13.00;99.90;;;;;;5011443;28;20218;-70
2023/01/02 03:52:20;;;;;;;1.88;1.65;;;13.00;99.90;;;;;;5011703;28;20673;-70
2023/01/02 03:54:47;;;;;;;2.03;1.58;;;13.00;99.90;;;;;;5011827;28;20662;-70
2023/01/02 03:57:22;;;;;;;1.70;1.50;;;13.00;99.90;;;;;;5011791;28;20210;-70
2023/01/02 03:59:56;;;;;;;2.20;1.40;;;13.00;99.90;;;;;;5011140;28;20194;-70
2023/01/02 04:02:31;;;;;;;2.37;1.10;;;12.90;99.90;;;;;;5011556;28;20472;-69
2023/01/02 04:05:00;;;;;;;2.95;1.88;;;13.00;99.90;;;;;;5011585;28;20480;-70
2023/01/02 04:07:30;;;;;;;2.65;1.67;;;12.90;99.90;;;;;;5011494;28;20852;-70
2023/01/02 04:09:59;;;;;;;1.63;1.50;;;12.90;99.90;;;;;;5011361;28;20226;-71
2023/01/02 04:12:28;;;;;;;3.55;1.90;;;12.90;99.90;;;;;;5011324;28;20673;-71
2023/01/02 04:15:00;;;;;;;1.50;1.40;;;12.90;99.90;;;;;;5011498;28;20331;-71
2023/01/02 04:17:33;;;;;;;1.15;1.05;;;12.90;99.90;;;;;;5011331;28;20207;-71
2023/01/02 04:20:03;;;;;;;2.03;1.40;;;12.90;99.90;;;;;;5011014;28;20580;-71
2023/01/02 04:22:33;;;;;;;1.30;1.20;;;12.80;99.90;;;;;;5011351;28;20233;-71
2023/01/02 04:25:06;;;;;;;1.83;1.50;;;12.80;99.90;;;;;;5011555;28;20222;-71
2023/01/02 04:27:36;;;;;;;1.75;1.30;;;12.80;99.90;;;;;;5011254;28;20576;-71
2023/01/02 04:30:04;;;;;;;2.70;1.43;;;12.70;99.90;;;;;;5010857;28;20230;-70
2023/01/02 04:32:37;;;;;;;2.85;1.80;;;12.70;99.90;;;;;;5010793;28;20461;-70
2023/01/02 04:35:07;;;;;;;10.00;2.05;;;12.70;99.90;;;;;;5010969;28;20590;-70
2023/01/02 04:37:36;;;;;;;1.73;1.35;;;12.60;99.90;;;;;;5011305;28;20202;-70
2023/01/02 04:40:09;;;;;;;2.47;1.20;;;12.60;99.90;;;;;;5010619;28;20194;-70
2023/01/02 04:42:36;;;;;;;1.40;1.30;;;12.60;99.90;;;;;;5011127;28;20574;-70
2023/01/02 04:45:03;;;;;;;1.70;1.15;;;12.60;99.90;;;;;;5010971;28;20629;-71
2023/01/02 04:47:31;;;;;;;2.30;1.17;;;12.60;99.90;;;;;;5010981;28;20202;-71
2023/01/02 04:49:58;;;;;;;4.15;1.73;;;12.60;99.90;;;;;;5010486;28;20222;-70
2023/01/02 04:52:25;;;;;;;2.40;1.50;;;12.60;99.90;;;;;;5010830;28;20210;-70
2023/01/02 04:54:51;;;;;;;2.38;1.30;;;12.60;99.90;;;;;;5011717;28;20226;-71
2023/01/02 04:57:18;;;;;;;1.50;1.40;;;12.50;99.90;;;;;;5010549;28;20213;-70
2023/01/02 04:59:45;;;;;;;1.20;1.10;;;12.50;99.90;;;;;;5010422;28;20198;-70
2023/01/02 05:02:11;;;;;;;5.90;1.60;;;12.50;99.90;;;;;;5010629;28;20206;-70
2023/01/02 05:04:39;;;;;;;2.28;1.67;;;12.50;99.90;;;;;;5010816;28;20206;-70
2023/01/02 05:07:06;;;;;;;4.93;1.80;;;12.50;99.90;;;;;;5010953;28;20583;-70
2023/01/02 05:09:33;;;;;;;2.85;1.50;;;12.40;99.90;;;;;;5010280;28;20242;-70
2023/01/02 05:12:00;;;;;;;2.08;1.35;;;12.40;99.90;;;;;;5010977;28;20206;-70
2023/01/02 05:14:26;;;;;;;2.38;1.42;;;12.40;99.90;;;;;;5010522;28;20680;-70
2023/01/02 05:16:53;;;;;;;2.10;1.55;;;12.40;99.90;;;;;;5010950;28;20206;-70
2023/01/02 05:19:20;;;;;;;2.40;1.70;;;12.40;99.90;;;;;;5010108;28;20194;-70
2023/01/02 05:24:32;;;;;;;4.38;1.77;;;12.40;99.90;;;;;;5010507;28;20209;-70
2023/01/02 05:26:59;;;;;;;2.63;1.45;;;12.40;99.90;;;;;;5010722;28;20206;-70
2023/01/02 05:29:26;;;;;;;1.80;1.17;;;12.40;99.90;;;;;;5009605;28;20226;-70
2023/01/02 05:31:53;;;;;;;1.80;1.30;;;12.40;99.90;;;;;;5010700;28;20210;-70
2023/01/02 05:34:19;;;;;;;1.50;1.20;;;12.40;99.90;;;;;;5010395;28;20198;-70
2023/01/02 05:36:47;;;;;;;1.40;1.30;;;12.40;99.90;;;;;;5010642;28;20218;-70
2023/01/02 05:39:14;;;;;;;2.00;1.80;;;12.40;99.90;;;;;;5009849;28;20604;-70
2023/01/02 05:41:41;;;;;;;3.50;1.75;;;12.40;99.90;;;;;;5010614;28;20202;-70
2023/01/02 05:44:09;;;;;;;2.10;1.60;;;12.30;99.90;;;;;;5010413;28;20202;-71
2023/01/02 05:46:37;;;;;;;1.90;1.60;;;12.40;99.90;;;;;;5010491;28;20600;-70
2023/01/02 05:49:04;;;;;;;1.40;1.30;;;12.40;99.90;;;;;;5009804;28;20484;-70
2023/01/02 05:51:31;;;;;;;2.20;1.40;;;12.40;99.90;;;;;;5010206;28;20213;-70
2023/01/02 05:53:59;;;;;;;3.97;1.85;;;12.40;99.90;;;;;;5010459;28;20681;-71
2023/01/02 05:56:27;;;;;;;1.70;1.60;;;12.40;99.90;;;;;;5010179;28;20230;-70
2023/01/02 05:58:54;;;;;;;2.17;1.42;;;12.40;99.90;;;;;;5010166;28;20198;-70
2023/01/02 06:01:23;;;;;;;1.92;1.30;;;12.40;99.90;;;;;;5010380;28;20241;-70
2023/01/02 06:03:51;;;;;;;3.10;1.50;;;12.40;99.90;;;;;;5010252;28;20194;-70
2023/01/02 06:06:19;;;;;;;2.28;1.40;;;12.50;99.90;;;;;;5010821;28;20225;-71
2023/01/02 06:08:46;;;;;;;1.88;1.25;;;12.50;99.90;;;;;;5010580;28;20198;-70
2023/01/02 06:11:14;;;;;;;1.65;1.55;;;12.40;99.90;;;;;;5013316;28;20210;-70
2023/01/02 06:13:41;;;;;;;3.45;2.47;;;12.40;99.90;;;;;;5010429;28;20274;-71
2023/01/02 06:16:09;;;;;;;2.58;1.60;;;12.40;99.90;;;;;;5012956;28;20586;-70
2023/01/02 06:18:37;;;;;;;1.97;1.47;;;12.40;99.90;;;;;;5012682;28;20210;-71
2023/01/02 06:21:06;;;;;;;2.03;1.42;;;12.40;99.90;;;;;;5010833;28;20461;-70
2023/01/02 06:23:33;;;;;;;1.90;1.50;;;12.40;99.90;;;;;;5013347;28;20214;-71
2023/01/02 06:26:03;;;;;;;1.50;1.30;;;12.40;99.90;;;;;;5012761;28;20620;-70
2023/01/02 06:28:31;;;;;;;1.50;1.30;;;12.30;99.90;;;;;;5012171;28;20229;-70
2023/01/02 06:31:00;;;;;;;1.63;1.38;;;12.30;99.90;;;;;;5013036;28;20218;-70
2023/01/02 06:33:27;;;;;;;2.17;1.63;;;12.40;99.90;;;;;;5012835;28;20238;-70
2023/01/02 06:35:57;;;;;;;7.03;1.40;;;12.30;99.90;;;;;;5013347;28;20228;-70
2023/01/02 06:38:24;;;;;;;2.90;1.52;;;12.30;99.90;;;;;;5012303;28;20660;-71
2023/01/02 06:40:54;;;;;;;3.40;1.88;;;12.30;99.90;;;;;;5012824;28;20615;-71
2023/01/02 06:43:22;;;;;;;1.85;1.70;;;12.30;99.90;;;;;;5012878;28;20229;-71
2023/01/02 06:45:50;;;;;;;3.78;1.88;;;12.20;99.90;;;;;;5013064;28;20245;-70
2023/01/02 06:48:17;;;;;;;5.70;2.47;;;12.20;99.90;;;;;;5012840;28;20209;-70
2023/01/02 06:50:44;;;;;;;2.50;1.73;;;12.20;99.90;;;;;;5011973;28;20245;-71
2023/01/02 06:53:11;;;;;;;2.97;1.90;;;12.20;99.90;;;;;;5010528;28;20575;-70
2023/01/02 06:55:38;;;;;;;2.47;2.15;;;12.20;99.90;;;;;;5011397;28;20596;-71
2023/01/02 06:58:05;;;;;;;2.33;1.30;;;12.20;99.90;;;;;;5011535;28;20206;-71
2023/01/02 07:00:32;;;;;;;2.55;1.63;;;12.30;99.90;;;;;;5010228;28;20435;-70
2023/01/02 07:03:00;;;;;;;3.15;1.65;;;12.40;99.90;;;;;;5012690;28;20213;-70
2023/01/02 07:05:27;;;;;;;3.03;2.00;;;12.40;99.90;;;;;;5012492;28;20632;-70
2023/01/02 07:07:53;;;;;;;2.42;1.50;;;12.40;99.90;;;;;;5012803;28;20206;-70
2023/01/02 07:10:20;;;;;;;2.25;1.58;;;12.40;99.90;;;;;;5012246;28;20237;-70
2023/01/02 07:12:47;;;;;;;2.83;1.60;;;12.40;99.90;;;;;;5012561;28;20213;-71
2023/01/02 07:15:13;;;;;;;1.73;1.30;;;12.40;99.90;;;;;;5012516;28;20232;-70
2023/01/02 07:17:40;;;;;;;3.70;1.63;;;12.40;99.90;;;;;;5012539;28;20210;-70
2023/01/02 07:20:09;;;;;;;2.38;1.50;;;12.40;99.90;;;;;;5011656;28;20580;-70
2023/01/02 07:22:36;;;;;;;1.73;1.45;;;12.50;99.90;;;;;;5012627;28;20199;-70
2023/01/02 07:25:03;;;;;;;5.05;1.80;;;12.40;99.90;;;;;;5012435;28;20599;-70
2023/01/02 07:27:30;;;;;;;1.77;1.60;;;12.40;99.90;;;;;;5011972;28;20194;-72
2023/01/02 07:29:57;;;;;;;2.53;1.88;;;12.40;99.90;;;;;;5011855;28;20281;-69
2023/01/02 07:32:24;;;;;;;3.25;1.50;;;12.40;99.90;;;;;;5012252;28;20202;-71
2023/01/02 07:34:51;;;;;;;2.03;1.42;;;12.30;99.90;;;;;;5012290;28;20232;-71
2023/01/02 07:37:19;;;;;;;3.38;1.60;;;12.30;99.90;;;;;;5012688;28;20203;-69
2023/01/02 07:39:46;;;;;;;3.95;2.05;;;12.30;99.90;;;;;;5011497;28;20198;-71
2023/01/02 07:42:12;;;;;;;4.00;1.65;;;12.30;99.90;;;;;;5012196;28;20206;-71
2023/01/02 07:44:39;;;;;;;1.65;1.30;;;12.20;99.90;;;;;;5011828;28;20230;-72
2023/01/02 07:47:06;;;;;;;2.50;1.70;;;12.30;99.90;;;;;;5011947;28;20560;-70
2023/01/02 07:49:33;;;;;;;2.83;1.67;;;12.30;99.90;;;;;;5011705;28;20609;-70
2023/01/02 07:52:00;;;;;;;1.50;1.15;;;12.30;99.90;;;;;;5011982;28;20650;-70
2023/01/02 07:54:28;;;;;;;2.10;1.60;;;12.40;99.90;;;;;;5011676;28;20202;-71
2023/01/02 07:56:55;;;;;;;1.98;1.73;;;12.40;99.90;;;;;;5011905;28;20693;-70
2023/01/02 07:59:22;;;;;;;1.55;1.45;;;12.40;99.90;;;;;;5011207;28;20492;-71
2023/01/02 08:01:49;;;;;;;2.00;1.40;;;12.40;99.90;;;;;;5012074;28;20207;-70
2023/01/02 08:04:16;;;;;;;1.77;1.63;;;12.40;99.90;;;;;;5011965;28;20206;-71
2023/01/02 08:06:42;;;;;;;2.85;1.60;;;12.40;99.90;;;;;;5011565;28;20724;-71
2023/01/02 08:09:09;;;;;;;2.37;1.40;;;12.40;99.90;;;;;;5011328;28;20209;-71
2023/01/02 08:11:37;;;;;;;2.47;1.90;;;12.40;99.90;;;;;;5011726;28;20858;-71
2023/01/02 08:14:04;;;;;;;2.70;1.97;;;12.50;99.90;;;;;;5011759;28;20213;-70
2023/01/02 08:16:31;;;;;;;2.93;1.40;;;12.50;99.90;;;;;;5011930;28;20571;-71
2023/01/02 08:18:57;;;;;;;2.35;1.65;;;12.60;99.90;;;;;;5011071;28;20843;-70
2023/01/02 08:21:25;;;;;;;1.58;1.33;;;12.60;99.90;;;;;;5011426;28;20286;-71
2023/01/02 08:23:52;;;;;;;3.50;1.40;;;12.60;99.90;;;;;;5011387;28;20206;-70
2023/01/02 08:26:20;;;;;;;1.33;1.23;;;12.60;99.90;;;;;;5011293;28;20226;-71
2023/01/02 08:28:48;;;;;;;2.88;1.90;;;12.60;99.90;;;;;;5010795;28;20468;-71
2023/01/02 08:31:17;;;;;;;1.90;1.70;;;12.60;99.90;;;;;;4990416;28;20223;-71
2023/01/02 08:33:45;;;;;;;2.65;1.70;;;12.60;99.90;;;;;;4996896;28;20250;-70
2023/01/02 08:36:13;;;;;;;2.33;1.47;;;12.70;99.90;;;;;;4988502;28;20223;-69
2023/01/02 08:38:40;;;;;;;2.65;1.83;;;12.80;99.90;;;;;;4989689;28;20545;-69
2023/01/02 08:41:07;;;;;;;1.63;1.30;;;12.80;99.90;;;;;;4997517;28;20198;-70
2023/01/02 08:43:35;;;;;;;2.10;1.50;;;12.90;99.90;;;;;;5002557;28;20260;-70
2023/01/02 08:46:05;;;;;;;2.43;1.77;;;12.90;99.90;;;;;;5001602;28;20514;-70
2023/01/02 08:48:31;;;;;;;2.25;1.20;;;13.00;99.90;;;;;;5009602;28;20465;-69
2023/01/02 08:50:58;;;;;;;2.38;1.75;;;13.00;99.90;;;;;;5010302;28;20596;-70
2023/01/02 08:53:25;;;;;;;2.10;1.40;;;13.10;99.90;;;;;;5009368;28;20206;-70
2023/01/02 08:55:52;;;;;;;2.33;1.47;;;13.20;99.90;;;;;;5010071;28;20229;-70
2023/01/02 08:58:18;;;;;;;1.60;1.37;;;13.30;99.90;;;;;;5008189;28;20504;-70
2023/01/02 09:00:45;;;;;;;4.27;2.00;;;13.30;99.90;;;;;;5009963;28;20457;-71
2023/01/02 09:03:13;;;;;;;2.00;1.60;;;13.40;99.90;;;;;;5009887;28;20495;-71
2023/01/02 09:05:40;;;;;;;2.30;1.93;;;13.50;99.90;;;;;;5008942;28;20487;-71
2023/01/02 09:08:06;;;;;;;2.20;1.53;;;13.50;99.90;;;;;;5010334;28;20483;-71
2023/01/02 09:10:33;;;;;;;1.65;1.55;;;13.60;99.90;;;;;;5009151;28;20493;-71
2023/01/02 09:13:00;;;;;;;2.60;1.80;;;13.60;99.90;;;;;;5009848;28;20206;-71
2023/01/02 09:15:26;;;;;;;2.33;1.60;;;13.60;99.90;;;;;;5009540;28;20837;-71
2023/01/02 09:17:53;;;;;;;2.00;1.57;;;13.60;99.90;;;;;;5009283;28;20465;-71
2023/01/02 09:20:21;;;;;;;1.57;1.33;;;13.70;99.90;;;;;;5009311;28;20959;-70
2023/01/02 09:22:48;;;;;;;3.20;1.60;;;13.70;99.90;;;;;;5009199;28;20453;-70
2023/01/02 09:25:15;;;;;;;2.17;1.67;;;13.70;99.90;;;;;;5009414;28;20517;-71
2023/01/02 09:27:42;;;;;;;2.40;1.90;;;14.00;99.90;;;;;;5009074;28;20458;-71
2023/01/02 09:30:09;;;;;;;2.43;1.63;;;14.10;99.90;;;;;;5005239;28;20992;-71
2023/01/02 09:32:36;;;;;;;2.80;1.50;;;14.40;99.90;;;;;;5008945;28;20457;-71
2023/01/02 09:35:02;;;;;;;2.43;1.50;;;15.30;99.90;;;;;;5008865;28;20481;-71
2023/01/02 09:37:30;;;;;;;2.93;1.90;;;16.50;98.70;;;;;;5009166;28;20493;-71
2023/01/02 09:39:57;;;;;;;4.60;2.00;;;17.60;97.80;;;;;;5008765;28;20457;-71
2023/01/02 09:42:24;;;;;;;3.03;1.70;;;17.90;96.90;;;;;;5009006;28;20488;-70
2023/01/02 09:44:56;;;;;;;2.10;1.70;;;17.50;96.40;;;;;;5011030;28;20483;-71
2023/01/02 09:47:28;;;;;;;10.13;1.83;;;16.80;97.00;;;;;;5012701;28;20465;-70
2023/01/02 09:49:57;;;;;;;2.93;1.77;;;16.40;97.00;;;;;;5012831;28;20926;-70
2023/01/02 09:52:27;;;;;;;3.40;1.80;;;16.00;97.30;;;;;;5013993;28;20465;-70
2023/01/02 09:54:55;;;;;;;1.50;1.40;;;15.80;97.50;;;;;;5015229;28;20481;-71
2023/01/02 09:57:33;;;;;;;4.90;1.60;;;15.80;97.20;;;;;;5013974;28;20461;-70
2023/01/02 10:00:05;;;;;;;2.43;1.20;;;15.90;97.30;;;;;;5014540;28;20527;-71
2023/01/02 10:02:45;;;;;;;2.40;1.80;;;16.20;96.80;;;;;;5015120;28;20460;-70
2023/01/02 10:05:40;;;;;;;2.63;1.50;;;16.30;96.70;;;;;;5014296;28;20480;-70
2023/01/02 10:08:14;;;;;;;3.30;1.80;;;16.30;96.40;;;;;;5013177;28;20461;-70
2023/01/02 10:10:45;;;;;;;3.43;1.83;;;16.30;96.50;;;;;;5014337;28;20491;-71
2023/01/02 10:13:22;;;;;;;3.67;2.30;;;16.70;95.90;;;;;;5013333;28;20461;-71
2023/01/02 10:15:51;;;;;;;1.67;1.40;;;17.60;95.00;;;;;;5013771;28;20503;-72
2023/01/02 10:18:22;;;;;;;2.97;1.97;;;18.50;94.70;;;;;;5013344;28;20486;-71
2023/01/02 10:20:56;;;;;;;1.50;1.40;;;19.60;93.70;;;;;;5012738;28;20468;-71
2023/01/02 10:23:27;;;;;;;1.73;1.10;;;20.40;93.10;;;;;;5013038;28;20468;-71
2023/01/02 10:26:00;;;;;;;1.87;1.50;;;21.40;92.40;;;;;;5013979;28;20481;-71
2023/01/02 10:28:40;;;;;;;2.30;1.40;;;22.10;90.90;;;;;;5012019;28;20480;-71
2023/01/02 10:31:10;;;;;;;2.20;1.60;;;21.90;90.80;;;;;;5012892;28;20485;-71
2023/01/02 10:33:45;;;;;;;2.87;1.50;;;21.70;91.10;;;;;;5009854;28;20488;-71
2023/01/02 10:36:22;;;;;;;1.90;1.43;;;21.60;91.30;;;;;;4989904;28;20517;-71
2023/01/02 10:38:50;;;;;;;2.07;1.53;;;21.70;90.80;;;;;;4989653;28;21012;-69
2023/01/02 10:41:18;;;;;;;2.83;1.50;;;21.80;91.10;;;;;;4990168;28;20462;-69
2023/01/02 10:43:52;;;;;;;2.30;1.70;;;22.20;90.90;;;;;;4989965;28;20466;-70
2023/01/02 10:46:19;;;;;;;2.47;1.10;;;22.70;90.40;;;;;;4989275;28;20560;-69
2023/01/02 10:48:46;;;;;;;3.40;1.60;;;23.10;88.90;;;;;;4991774;28;20469;-70
2023/01/02 10:51:16;;;;;;;2.33;1.40;;;23.00;87.50;;;;;;4992866;28;20482;-69
2023/01/02 10:53:42;;;;;;;2.13;1.60;;;23.60;88.20;;;;;;4992588;28;20466;-70
2023/01/02 10:56:17;;;;;;;4.47;1.77;;;24.40;87.10;;;;;;4991968;28;20490;-71
2023/01/02 10:58:47;;;;;;;1.73;1.50;;;25.70;85.40;;;;;;4992229;28;20520;-70
2023/01/02 11:01:17;;;;;;;2.20;1.50;;;26.10;84.10;;;;;;4992854;28;20462;-70
2023/01/02 11:03:45;;;;;;;4.67;1.73;;;26.30;84.50;;;;;;4992661;28;20468;-71
2023/01/02 11:06:20;;;;;;;2.67;2.00;;;26.40;82.40;;;;;;4992303;28;20485;-70
2023/01/02 11:08:56;;;;;;;2.13;1.60;;;26.40;82.10;;;;;;5007556;28;20467;-70
2023/01/02 11:11:24;;;;;;;2.03;1.70;;;26.40;80.90;;;;;;5010095;28;20558;-70
2023/01/02 11:13:54;;;;;;;4.70;1.73;;;26.10;79.70;;;;;;5011384;28;20817;-70
2023/01/02 11:16:24;;;;;;;2.47;1.47;;;26.00;79.60;;;;;;5002726;28;20482;-70
2023/01/02 11:18:52;;;;;;;1.77;1.63;;;25.60;80.00;;;;;;5009776;28;20470;-70
2023/01/02 11:21:28;;;;;;;4.10;1.67;;;25.50;79.30;;;;;;5011285;28;20461;-69
2023/01/02 11:23:59;;;;;;;3.33;1.70;;;25.50;79.50;;;;;;5011122;28;20475;-70
2023/01/02 11:26:28;;;;;;;4.03;2.00;;;25.20;79.30;;;;;;5009691;28;20496;-70
2023/01/02 11:29:05;;;;;;;2.80;1.53;;;24.80;78.90;;;;;;5010789;28;20473;-70
2023/01/02 11:31:32;;;;;;;2.93;1.80;;;24.00;80.20;;;;;;5010676;28;20493;-70
2023/01/02 11:34:08;;;;;;;2.13;1.50;;;22.60;83.40;;;;;;5010543;28;20468;-69
2023/01/02 11:36:35;;;;;;;3.73;1.90;;;21.60;84.80;;;;;;5010605;28;20859;-70
2023/01/02 11:39:20;;;;;;;3.03;1.83;;;20.60;85.20;;;;;;5010535;28;20476;-70
2023/01/02 11:44:48;;;;;;;3.00;1.77;;;19.50;88.60;;;;;;5010938;28;20496;-70
2023/01/02 11:47:16;;;;;;;3.80;1.77;;;20.00;89.30;;;;;;5010041;28;20967;-70
2023/01/02 11:49:45;;;;;;;4.03;1.70;;;21.10;87.60;;;;;;5009960;28;20465;-71
2023/01/02 11:52:15;;;;;;;3.80;1.90;;;21.00;86.60;;;;;;5010628;28;20485;-69
2023/01/02 11:54:49;;;;;;;2.07;1.37;;;20.10;88.00;;;;;;5010080;28;20485;-68
2023/01/02 11:57:24;;;;;;;2.20;1.80;;;19.00;89.70;;;;;;4997238;28;20946;-68
2023/01/02 11:59:55;;;;;;;3.90;1.70;;;18.20;90.70;;;;;;4990181;28;20461;-68
2023/01/02 12:02:29;;;;;;;1.97;1.57;;;17.80;91.00;;;;;;4990389;28;20477;-69
2023/01/02 12:04:56;;;;;;;2.80;1.70;;;17.50;91.40;;;;;;4990565;28;20831;-69
2023/01/02 12:07:41;;;;;;;3.07;1.80;;;17.30;91.90;;;;;;5006509;28;20469;-69
2023/01/02 12:10:22;;;;;;;3.10;1.57;;;17.20;92.40;;;;;;5010806;28;20896;-69
2023/01/02 12:13:03;;;;;;;1.67;1.50;;;17.00;91.90;;;;;;5003738;28;20486;-69
2023/01/02 12:15:51;;;;;;;3.47;1.77;;;16.70;92.80;;;;;;5007734;28;21006;-70
2023/01/02 12:18:32;;;;;;;1.83;1.30;;;16.80;92.90;;;;;;4990429;28;20469;-69
2023/01/02 12:21:10;;;;;;;1.87;1.40;;;17.10;92.80;;;;;;4991463;28;20949;-70
2023/01/02 12:24:07;;;;;;;4.53;1.70;;;17.40;92.40;;;;;;4989241;28;20472;-69
2023/01/02 12:26:46;;;;;;;5.27;1.77;;;17.40;92.10;;;;;;4951564;28;20487;-70
2023/01/02 12:29:50;;;;;;;3.70;2.00;;;17.20;92.50;;;;;;4989722;28;20473;-69
2023/01/02 12:32:56;;;;;;;3.73;1.60;;;17.30;92.60;;;;;;4989562;28;20493;-69
2023/01/02 12:35:52;;;;;;;3.10;1.73;;;17.30;92.90;;;;;;4948561;29;20483;-69
2023/01/02 12:38:30;;;;;;;2.07;1.63;;;17.50;92.20;;;;;;4947865;29;20466;-68
2023/01/02 12:41:10;;;;;;;4.20;2.00;;;17.70;92.70;;;;;;4979632;28;20454;-70
2023/01/02 12:44:08;;;;;;;2.37;1.40;;;18.00;92.40;;;;;;4989956;28;20462;-69
2023/01/02 12:47:03;;;;;;;4.17;1.80;;;18.10;91.60;;;;;;4989650;28;20490;-69
2023/01/02 12:49:56;;;;;;;2.07;1.70;;;18.20;91.70;;;;;;4989200;28;20706;-70
2023/01/02 12:52:37;;;;;;;5.20;2.10;;;18.10;91.70;;;;;;4990044;28;20486;-69
2023/01/02 12:55:25;;;;;;;3.53;1.50;;;18.30;91.90;;;;;;4989400;28;20585;-69
2023/01/02 12:57:58;;;;;;;2.60;1.80;;;18.20;92.10;;;;;;4989956;28;20470;-70
2023/01/02 13:00:43;;;;;;;2.10;1.90;;;18.50;92.10;;;;;;4988345;28;20466;-70
2023/01/02 13:03:55;;;;;;;3.30;1.80;;;18.70;92.10;;;;;;4989018;28;20469;-70
2023/01/02 13:06:27;;;;;;;6.07;2.13;;;18.90;92.10;;;;;;4954133;28;20488;-69
2023/01/02 13:09:00;;;;;;;2.13;1.30;;;18.90;91.90;;;;;;4988611;28;20561;-69
2023/01/02 13:11:32;;;;;;;6.00;2.10;;;18.70;91.30;;;;;;4989251;28;20490;-70